createdAt,value
2017-09-03T12:01:45.997Z,0.84
2017-09-03T12:02:45.632Z,0.85
2017-09-03T12:03:45.485Z,0.83
2017-09-03T12:04:45.493Z,0.85
2017-09-03T12:05:45.825Z,0.84
2017-09-03T12:06:45.306Z,0.88
2017-09-03T12:07:45.821Z,0.85
2017-09-03T12:08:45.917Z,0.84
2017-09-03T12:09:45.094Z,0.84
2017-09-03T12:10:44.898Z,0.85
2017-09-03T12:11:44.919Z,0.84
2017-09-03T12:12:44.677Z,0.85
2017-09-03T12:13:44.695Z,0.85
2017-09-03T12:14:44.635Z,0.85
2017-09-03T12:15:44.370Z,0.84
2017-09-03T12:16:44.233Z,0.84
2017-09-03T12:17:44.581Z,0.85
2017-09-03T12:18:44.220Z,0.86
2017-09-03T12:19:44.839Z,0.84
2017-09-03T12:20:43.896Z,0.83
2017-09-03T12:21:44.869Z,0.85
2017-09-03T12:22:44.343Z,0.86
2017-09-03T12:23:43.673Z,0.86
2017-09-03T12:24:43.488Z,0.83
2017-09-03T12:25:43.512Z,0.86
2017-09-03T12:26:43.377Z,0.86
2017-09-03T12:27:43.546Z,0.84
2017-09-03T12:28:43.147Z,0.85
2017-09-03T12:29:43.073Z,0.83
2017-09-03T12:30:43.056Z,0.84
2017-09-03T12:34:59.501Z,3.96
2017-09-03T12:35:58.730Z,3.96
2017-09-03T12:36:59.557Z,3.98
2017-09-03T12:37:58.695Z,4.00
2017-09-03T12:38:58.660Z,3.99
2017-09-03T12:42:22.268Z,3.97
2017-09-03T12:43:23.505Z,4.00
2017-09-03T12:44:22.907Z,3.97
2017-09-03T12:45:22.177Z,4.01
2017-09-03T12:46:22.328Z,3.99
2017-09-03T12:47:22.912Z,3.99
2017-09-03T12:48:22.916Z,3.97
2017-09-03T12:49:22.352Z,3.95
2017-09-03T12:53:39.424Z,3.98
2017-09-03T12:54:44.426Z,3.99
2017-09-03T12:55:49.330Z,3.99
2017-09-03T12:56:55.937Z,3.95
2017-09-03T12:58:00.513Z,3.99
2017-09-03T12:59:06.436Z,3.96
2017-09-03T13:00:11.516Z,3.96
2017-09-03T13:01:18.439Z,3.96
2017-09-03T13:02:23.159Z,3.99
2017-09-03T13:03:28.972Z,3.98
2017-09-03T13:04:33.675Z,3.99
2017-09-03T13:05:39.188Z,3.97
2017-09-03T13:06:44.601Z,3.99
2017-09-03T13:07:50.971Z,3.94
2017-09-03T13:08:56.460Z,3.97
2017-09-03T13:10:01.360Z,4.00
2017-09-03T13:11:07.457Z,3.98
2017-09-03T13:12:12.960Z,3.98
2017-09-03T13:13:17.886Z,4.00
2017-09-03T13:14:24.119Z,3.97
2017-09-03T13:15:29.076Z,4.00
2017-09-03T13:16:34.492Z,3.98
2017-09-03T13:17:40.096Z,4.01
2017-09-03T13:18:47.471Z,3.97
2017-09-03T13:19:51.978Z,3.98
2017-09-03T13:20:56.802Z,3.98
2017-09-03T13:22:02.217Z,3.97
2017-09-03T13:23:08.482Z,4.00
2017-09-03T13:24:13.293Z,3.96
2017-09-03T13:25:18.816Z,3.98
2017-09-03T13:26:24.312Z,3.99
2017-09-03T13:27:29.965Z,3.98
2017-09-03T13:28:35.379Z,3.97
2017-09-03T13:29:42.029Z,3.97
2017-09-03T13:30:46.477Z,3.99
2017-09-03T13:31:51.998Z,3.97
2017-09-03T13:32:57.604Z,3.99
2017-09-03T13:34:03.052Z,3.98
2017-09-03T13:35:08.632Z,3.95
2017-09-03T13:36:14.158Z,4.01
2017-09-03T13:37:19.685Z,3.97
2017-09-03T13:38:25.726Z,4.00
2017-09-03T13:39:31.685Z,4.00
2017-09-03T13:40:36.249Z,3.98
2017-09-03T13:41:42.512Z,3.99
2017-09-03T13:42:47.306Z,3.95
2017-09-03T13:43:53.532Z,3.99
2017-09-03T13:44:59.045Z,3.98
2017-09-03T13:46:03.930Z,4.01
2017-09-03T13:47:09.462Z,3.96
2017-09-03T13:48:15.078Z,4.01
2017-09-03T13:49:20.571Z,3.99
2017-09-03T13:50:26.158Z,3.99
2017-09-03T13:51:31.625Z,3.99
2017-09-03T13:52:38.534Z,3.98
2017-09-03T13:53:43.541Z,4.00
2017-09-03T13:54:48.254Z,4.00
2017-09-03T13:55:54.563Z,3.95
2017-09-03T13:56:59.415Z,4.00
2017-09-03T13:58:05.610Z,4.01
2017-09-03T13:59:10.582Z,4.00
2017-09-03T14:00:16.064Z,3.98
2017-09-03T14:01:21.456Z,3.98
2017-09-03T14:02:27.001Z,3.99
2017-09-03T14:03:33.189Z,3.97
2017-09-03T14:04:38.560Z,3.97
2017-09-03T14:05:44.179Z,3.99
2017-09-03T14:06:49.170Z,3.98
2017-09-03T14:07:54.591Z,3.97
2017-09-03T14:09:00.221Z,3.98
2017-09-03T14:10:06.655Z,3.95
2017-09-03T14:11:12.070Z,4.00
2017-09-03T14:12:16.923Z,4.00
2017-09-03T14:13:22.313Z,3.96
2017-09-03T14:14:27.971Z,4.00
2017-09-03T14:15:34.172Z,4.00
2017-09-03T14:16:38.922Z,3.98
2017-09-03T14:17:44.574Z,3.95
2017-09-03T14:18:50.025Z,3.98
2017-09-03T14:19:55.590Z,3.94
2017-09-03T14:21:02.083Z,3.99
2017-09-03T14:22:07.093Z,3.94
2017-09-03T14:23:12.140Z,4.00
2017-09-03T14:24:17.663Z,3.98
2017-09-03T14:25:23.212Z,3.98
2017-09-03T14:26:28.802Z,3.98
2017-09-03T14:27:34.299Z,4.00
2017-09-03T14:28:41.097Z,3.97
2017-09-03T14:29:46.344Z,3.97
2017-09-03T14:30:51.109Z,3.97
2017-09-03T14:31:57.105Z,4.00
2017-09-03T14:33:02.033Z,3.98
2017-09-03T14:34:07.535Z,4.01
2017-09-03T14:35:13.045Z,4.00
2017-09-03T14:36:18.609Z,3.98
2017-09-03T14:37:24.105Z,4.00
2017-09-03T14:38:29.709Z,4.00
2017-09-03T14:39:35.225Z,3.96
2017-09-03T14:40:40.817Z,4.00
2017-09-03T14:41:46.195Z,3.97
2017-09-03T14:42:53.633Z,4.01
2017-09-03T14:43:58.128Z,4.00
2017-09-03T14:45:03.626Z,3.96
2017-09-03T14:46:08.456Z,3.99
2017-09-03T14:47:14.748Z,3.99
2017-09-03T14:48:19.498Z,4.01
2017-09-03T14:49:25.022Z,4.00
2017-09-03T14:50:31.135Z,3.96
2017-09-03T14:51:36.243Z,4.01
2017-09-03T14:52:42.145Z,3.98
2017-09-03T14:53:47.226Z,4.01
2017-09-03T14:54:52.614Z,4.00
2017-09-03T14:55:58.812Z,3.99
2017-09-03T14:57:03.850Z,4.00
2017-09-03T14:58:09.291Z,4.01
2017-09-03T14:59:14.835Z,4.00
2017-09-03T15:00:20.368Z,4.01
2017-09-03T15:01:25.953Z,4.02
2017-09-03T15:02:31.465Z,4.02
2017-09-03T15:03:37.013Z,3.99
2017-09-03T15:04:42.457Z,4.00
2017-09-03T15:05:48.905Z,4.03
2017-09-03T15:06:54.169Z,4.00
2017-09-03T15:07:59.145Z,4.00
2017-09-03T15:09:05.199Z,4.02
2017-09-03T15:10:10.712Z,4.01
2017-09-03T15:11:15.698Z,4.02
2017-09-03T15:12:21.353Z,4.01
2017-09-03T15:13:26.737Z,3.99
2017-09-03T15:14:32.435Z,4.02
2017-09-03T15:15:37.958Z,4.03
2017-09-03T15:16:44.369Z,4.03
2017-09-03T15:17:50.692Z,4.00
2017-09-03T15:18:55.350Z,4.01
2017-09-03T15:19:59.978Z,3.98
2017-09-03T15:21:06.193Z,4.03
2017-09-03T15:22:11.096Z,4.00
2017-09-03T15:23:16.610Z,4.00
2017-09-03T15:24:22.852Z,4.03
2017-09-03T15:25:27.630Z,4.02
2017-09-03T15:26:33.216Z,4.00
2017-09-03T15:27:38.800Z,4.02
2017-09-03T15:28:44.297Z,4.00
2017-09-03T15:29:50.032Z,4.03
2017-09-03T15:30:55.349Z,3.95
2017-09-03T15:32:01.049Z,4.02
2017-09-03T15:33:06.437Z,4.00
2017-09-03T15:34:12.732Z,4.02
2017-09-03T15:35:17.527Z,4.03
2017-09-03T15:36:23.048Z,4.03
2017-09-03T15:37:28.673Z,4.01
2017-09-03T15:38:34.153Z,4.01
2017-09-03T15:39:39.644Z,4.00
2017-09-03T15:40:45.202Z,4.00
2017-09-03T15:41:50.715Z,4.00
2017-09-03T15:42:57.230Z,4.02
2017-09-03T15:44:01.870Z,4.00
2017-09-03T15:45:07.736Z,4.03
2017-09-03T15:46:12.878Z,4.00
2017-09-03T15:47:18.455Z,4.03
2017-09-03T15:48:24.747Z,4.00
2017-09-03T15:49:30.248Z,4.02
2017-09-03T15:50:34.995Z,4.01
2017-09-03T15:51:40.611Z,4.00
2017-09-03T15:52:46.753Z,4.01
2017-09-03T15:53:51.665Z,4.02
2017-09-03T15:54:57.096Z,4.01
2017-09-03T15:56:03.407Z,4.00
2017-09-03T15:57:08.239Z,4.01
2017-09-03T15:58:13.734Z,4.02
2017-09-03T15:59:19.315Z,4.02
2017-09-03T16:00:24.982Z,4.03
2017-09-03T16:01:30.353Z,4.01
2017-09-03T16:02:35.892Z,4.00
2017-09-03T16:03:41.471Z,4.00
2017-09-03T16:04:47.008Z,4.03
2017-09-03T16:05:52.519Z,4.02
2017-09-03T16:06:58.108Z,4.02
2017-09-03T16:08:04.381Z,4.02
2017-09-03T16:09:09.081Z,4.02
2017-09-03T16:10:14.700Z,4.04
2017-09-03T16:11:20.909Z,4.00
2017-09-03T16:12:27.309Z,4.00
2017-09-03T16:13:31.249Z,4.02
2017-09-03T16:14:36.796Z,4.03
2017-09-03T16:15:42.435Z,4.03
2017-09-03T16:16:49.794Z,4.01
2017-09-03T16:17:53.458Z,4.00
2017-09-03T16:18:59.114Z,4.02
2017-09-03T16:20:05.304Z,4.02
2017-09-03T16:21:10.041Z,4.03
2017-09-03T16:22:15.523Z,4.03
2017-09-03T16:23:21.875Z,4.03
2017-09-03T16:24:27.601Z,4.04
2017-09-03T16:25:32.328Z,4.03
2017-09-03T16:26:37.719Z,4.02
2017-09-03T16:27:43.827Z,4.00
2017-09-03T16:28:49.194Z,4.03
2017-09-03T16:29:54.240Z,4.02
2017-09-03T16:31:00.318Z,4.00
2017-09-03T16:32:05.826Z,4.02
2017-09-03T16:33:10.978Z,4.04
2017-09-03T16:34:17.439Z,4.00
2017-09-03T16:35:22.535Z,4.02
2017-09-03T16:36:27.462Z,4.01
2017-09-03T16:37:34.330Z,4.00
2017-09-03T16:38:39.362Z,4.00
2017-09-03T16:39:45.333Z,4.01
2017-09-03T16:40:49.829Z,4.03
2017-09-03T16:41:56.344Z,4.02
2017-09-03T16:43:00.801Z,4.00
2017-09-03T16:44:07.345Z,4.02
2017-09-03T16:45:12.452Z,4.02
2017-09-03T16:46:17.502Z,4.03
2017-09-03T16:47:22.909Z,4.01
2017-09-03T16:48:29.011Z,4.01
2017-09-03T16:49:33.978Z,4.00
2017-09-03T16:50:39.503Z,3.99
2017-09-03T16:51:45.439Z,3.99
2017-09-03T16:52:50.599Z,4.02
2017-09-03T16:53:56.216Z,4.02
2017-09-03T16:55:01.709Z,4.00
2017-09-03T16:56:07.134Z,4.00
2017-09-03T16:57:12.688Z,4.01
2017-09-03T16:58:18.240Z,4.00
2017-09-03T16:59:23.803Z,4.01
2017-09-03T17:00:30.018Z,4.03
2017-09-03T17:01:35.377Z,4.01
2017-09-03T17:02:40.316Z,4.03
2017-09-03T17:03:45.881Z,4.00
2017-09-03T17:04:52.379Z,3.99
2017-09-03T17:05:57.511Z,4.02
2017-09-03T17:07:02.577Z,3.99
2017-09-03T17:08:08.384Z,4.00
2017-09-03T17:09:14.512Z,4.02
2017-09-03T17:10:19.136Z,4.02
2017-09-03T17:11:24.654Z,4.02
2017-09-03T17:12:30.208Z,4.01
2017-09-03T17:13:35.630Z,3.99
2017-09-03T17:14:41.278Z,4.02
2017-09-03T17:15:46.751Z,4.00
2017-09-03T17:16:52.282Z,4.02
2017-09-03T17:17:57.940Z,4.02
2017-09-03T17:19:03.399Z,4.02
2017-09-03T17:20:08.971Z,3.99
2017-09-03T17:21:14.416Z,3.98
2017-09-03T17:22:19.983Z,4.01
2017-09-03T17:23:25.632Z,3.99
2017-09-03T17:24:31.923Z,4.01
2017-09-03T17:25:36.653Z,3.96
2017-09-03T17:26:42.118Z,4.01
2017-09-03T17:27:47.646Z,3.98
2017-09-03T17:28:53.200Z,3.98
2017-09-03T17:29:58.763Z,3.98
2017-09-03T17:31:04.229Z,3.98
2017-09-03T17:32:09.813Z,4.00
2017-09-03T17:33:15.339Z,4.01
2017-09-03T17:34:20.896Z,4.02
2017-09-03T17:35:26.910Z,4.02
2017-09-03T17:36:32.429Z,3.99
2017-09-03T17:37:37.520Z,3.98
2017-09-03T17:38:43.037Z,3.98
2017-09-03T17:39:49.447Z,4.00
2017-09-03T17:40:54.961Z,4.01
2017-09-03T17:41:59.686Z,4.01
2017-09-03T17:43:05.216Z,3.98
2017-09-03T17:44:10.808Z,3.99
2017-09-03T17:45:16.254Z,3.99
2017-09-03T17:46:22.948Z,3.98
2017-09-03T17:47:27.313Z,4.02
2017-09-03T17:48:32.939Z,3.99
2017-09-03T17:49:38.434Z,3.98
2017-09-03T17:50:43.995Z,3.98
2017-09-03T17:51:50.455Z,4.00
2017-09-03T17:52:54.979Z,4.01
2017-09-03T17:54:01.230Z,4.01
2017-09-03T17:55:06.961Z,4.01
2017-09-03T17:56:12.460Z,4.01
2017-09-03T17:57:17.962Z,4.01
2017-09-03T17:58:22.696Z,3.99
2017-09-03T17:59:29.971Z,3.98
2017-09-03T18:00:33.727Z,3.98
2017-09-03T18:01:40.661Z,3.99
2017-09-03T18:02:44.838Z,4.01
2017-09-03T18:03:50.378Z,4.00
2017-09-03T18:04:55.951Z,4.01
2017-09-03T18:06:01.400Z,3.99
2017-09-03T18:07:07.632Z,3.99
2017-09-03T18:08:12.591Z,4.01
2017-09-03T18:09:18.506Z,3.98
2017-09-03T18:10:23.591Z,3.98
2017-09-03T18:11:29.139Z,3.99
2017-09-03T18:12:34.705Z,3.97
2017-09-03T18:13:41.209Z,3.98
2017-09-03T18:14:46.560Z,4.00
2017-09-03T18:15:52.088Z,4.01
2017-09-03T18:16:57.587Z,3.99
2017-09-03T18:18:02.255Z,4.01
2017-09-03T18:19:07.925Z,4.01
2017-09-03T18:20:13.334Z,3.99
2017-09-03T18:21:18.886Z,3.98
2017-09-03T18:22:26.007Z,3.97
2017-09-03T18:23:30.689Z,3.98
2017-09-03T18:24:36.128Z,4.00
2017-09-03T18:25:41.514Z,3.97
2017-09-03T18:26:46.594Z,3.97
2017-09-03T18:27:52.089Z,3.99
2017-09-03T18:28:58.245Z,3.98
2017-09-03T18:30:03.725Z,3.99
2017-09-03T18:31:09.518Z,4.01
2017-09-03T18:32:14.269Z,3.98
2017-09-03T18:33:20.621Z,3.99
2017-09-03T18:34:26.050Z,3.97
2017-09-03T18:35:30.833Z,3.98
2017-09-03T18:36:36.510Z,3.98
2017-09-03T18:37:42.714Z,3.99
2017-09-03T18:38:47.456Z,4.00
2017-09-03T18:39:52.961Z,3.97
2017-09-03T18:40:58.553Z,3.97
2017-09-03T18:42:04.582Z,4.01
2017-09-03T18:43:09.633Z,3.97
2017-09-03T18:44:15.247Z,3.99
2017-09-03T18:45:22.138Z,3.97
2017-09-03T18:46:27.046Z,3.96
2017-09-03T18:47:31.921Z,4.00
2017-09-03T18:48:37.365Z,3.99
2017-09-03T18:49:42.808Z,4.00
2017-09-03T18:50:48.363Z,3.99
2017-09-03T18:51:53.859Z,3.99
2017-09-03T18:52:59.475Z,3.99
2017-09-03T18:54:05.829Z,3.98
2017-09-03T18:55:11.174Z,3.98
2017-09-03T18:56:16.213Z,3.96
2017-09-03T18:57:22.076Z,3.97
2017-09-03T18:58:27.818Z,3.98
2017-09-03T18:59:33.397Z,3.96
2017-09-03T19:00:38.566Z,3.98
2017-09-03T19:01:43.749Z,3.96
2017-09-03T19:02:50.140Z,4.00
2017-09-03T19:03:54.760Z,3.97
2017-09-03T19:05:00.303Z,3.98
2017-09-03T19:06:07.571Z,3.97
2017-09-03T19:07:11.487Z,3.96
2017-09-03T19:08:17.042Z,3.98
2017-09-03T19:09:23.167Z,3.96
2017-09-03T19:10:28.036Z,3.96
2017-09-03T19:11:33.585Z,3.96
2017-09-03T19:12:40.653Z,3.99
2017-09-03T19:13:45.607Z,3.99
2017-09-03T19:14:50.263Z,3.99
2017-09-03T19:15:55.742Z,3.96
2017-09-03T19:17:02.603Z,3.96
2017-09-03T19:18:08.180Z,3.96
2017-09-03T19:19:13.093Z,3.98
2017-09-03T19:20:18.233Z,3.97
2017-09-03T19:21:24.233Z,3.99
2017-09-03T19:22:30.638Z,3.97
2017-09-03T19:23:35.603Z,3.97
2017-09-03T19:24:40.223Z,3.95
2017-09-03T19:25:46.185Z,3.99
2017-09-03T19:26:51.031Z,3.96
2017-09-03T19:27:57.126Z,3.95
2017-09-03T19:29:03.104Z,3.99
2017-09-03T19:30:08.619Z,3.99
2017-09-03T19:31:13.750Z,3.99
2017-09-03T19:32:19.176Z,3.96
2017-09-03T19:33:24.284Z,3.97
2017-09-03T19:34:32.114Z,3.99
2017-09-03T19:35:35.290Z,3.99
2017-09-03T19:36:41.663Z,3.99
2017-09-03T19:37:46.461Z,3.99
2017-09-03T19:38:52.619Z,3.95
2017-09-03T19:39:57.529Z,3.99
2017-09-03T19:41:03.819Z,3.99
2017-09-03T19:42:09.128Z,3.95
2017-09-03T19:43:14.102Z,3.96
2017-09-03T19:44:20.250Z,3.96
2017-09-03T19:45:25.079Z,3.98
2017-09-03T19:46:30.684Z,3.95
2017-09-03T19:47:36.229Z,3.95
2017-09-03T19:48:41.875Z,3.96
2017-09-03T19:49:48.638Z,3.95
2017-09-03T19:50:52.836Z,3.96
2017-09-03T19:51:59.837Z,3.96
2017-09-03T19:53:03.940Z,3.95
2017-09-03T19:54:09.449Z,3.95
2017-09-03T19:55:15.799Z,3.95
2017-09-03T19:56:20.694Z,3.98
2017-09-03T19:57:26.101Z,3.97
2017-09-03T19:58:32.798Z,3.95
2017-09-03T19:59:38.150Z,3.98
2017-09-03T20:00:42.627Z,3.98
2017-09-03T20:01:48.207Z,3.95
2017-09-03T20:02:53.684Z,3.95
2017-09-03T20:03:59.668Z,3.95
2017-09-03T20:05:04.849Z,3.98
2017-09-03T20:06:10.440Z,3.95
2017-09-03T20:07:17.013Z,3.97
2017-09-03T20:08:21.403Z,3.98
2017-09-03T20:09:27.769Z,3.94
2017-09-03T20:10:33.668Z,3.95
2017-09-03T20:11:37.971Z,3.96
2017-09-03T20:12:44.369Z,3.95
2017-09-03T20:13:49.517Z,3.97
2017-09-03T20:14:54.673Z,3.95
2017-09-03T20:16:00.126Z,3.98
2017-09-03T20:17:05.717Z,3.98
2017-09-03T20:18:11.312Z,3.94
2017-09-03T20:19:18.302Z,3.98
2017-09-03T20:20:23.689Z,3.94
2017-09-03T20:21:28.684Z,3.96
2017-09-03T20:22:33.365Z,3.98
2017-09-03T20:23:39.126Z,3.94
2017-09-03T20:24:45.187Z,3.98
2017-09-03T20:25:49.861Z,3.95
2017-09-03T20:26:56.190Z,3.94
2017-09-03T20:28:02.191Z,3.96
2017-09-03T20:29:09.202Z,3.95
2017-09-03T20:30:12.789Z,3.98
2017-09-03T20:31:18.208Z,3.94
2017-09-03T20:32:23.175Z,3.94
2017-09-03T20:33:29.451Z,3.98
2017-09-03T20:34:34.304Z,3.96
2017-09-03T20:35:40.455Z,3.97
2017-09-03T20:36:45.873Z,3.94
2017-09-03T20:37:51.320Z,3.97
2017-09-03T20:38:56.413Z,3.93
2017-09-03T20:40:02.836Z,3.98
2017-09-03T20:41:08.233Z,3.98
2017-09-03T20:42:13.025Z,3.97
2017-09-03T20:43:19.465Z,3.97
2017-09-03T20:44:24.033Z,3.95
2017-09-03T20:45:30.227Z,3.96
2017-09-03T20:46:35.807Z,3.94
2017-09-03T20:47:41.198Z,3.93
2017-09-03T20:48:46.180Z,3.96
2017-09-03T20:49:52.303Z,3.97
2017-09-03T20:50:57.725Z,3.95
2017-09-03T20:52:03.419Z,3.95
2017-09-03T20:53:08.374Z,3.95
2017-09-03T20:54:14.442Z,3.93
2017-09-03T20:55:20.413Z,3.93
2017-09-03T20:56:25.746Z,3.93
2017-09-03T20:57:30.554Z,3.96
2017-09-03T20:58:36.736Z,3.94
2017-09-03T20:59:42.256Z,3.97
2017-09-03T21:00:47.786Z,3.95
2017-09-03T21:01:52.582Z,3.93
2017-09-03T21:02:58.151Z,3.96
2017-09-03T21:04:04.271Z,3.95
2017-09-03T21:05:09.336Z,3.93
2017-09-03T21:06:14.848Z,3.94
2017-09-03T21:07:20.294Z,3.93
2017-09-03T21:08:25.888Z,3.97
2017-09-03T21:09:31.461Z,3.94
2017-09-03T21:10:37.035Z,3.93
2017-09-03T21:11:43.386Z,3.93
2017-09-03T21:12:47.968Z,3.95
2017-09-03T21:13:55.358Z,3.93
2017-09-03T21:14:59.127Z,3.96
2017-09-03T21:16:04.643Z,3.95
2017-09-03T21:17:10.164Z,3.94
2017-09-03T21:18:15.696Z,3.93
2017-09-03T21:19:21.766Z,3.96
2017-09-03T21:20:27.853Z,3.93
2017-09-03T21:21:32.336Z,3.93
2017-09-03T21:22:37.979Z,3.93
2017-09-03T21:23:43.299Z,3.96
2017-09-03T21:24:48.870Z,3.93
2017-09-03T21:25:55.797Z,3.92
2017-09-03T21:26:59.888Z,3.96
2017-09-03T21:28:05.528Z,3.94
2017-09-03T21:29:10.979Z,3.94
2017-09-03T21:30:17.382Z,3.96
2017-09-03T21:31:22.860Z,3.94
2017-09-03T21:32:27.646Z,3.92
2017-09-03T21:33:33.173Z,3.93
2017-09-03T21:34:38.734Z,3.94
2017-09-03T21:35:44.790Z,3.94
2017-09-03T21:36:49.753Z,3.96
2017-09-03T21:37:55.321Z,3.95
2017-09-03T21:39:00.849Z,3.96
2017-09-03T21:40:06.394Z,3.95
2017-09-03T21:41:12.372Z,3.94
2017-09-03T21:42:17.408Z,3.93
2017-09-03T21:43:22.994Z,3.95
2017-09-03T21:44:28.451Z,3.94
2017-09-03T21:45:34.181Z,3.95
2017-09-03T21:46:40.539Z,3.94
2017-09-03T21:47:47.808Z,3.95
2017-09-03T21:48:50.751Z,3.95
2017-09-03T21:49:56.213Z,3.91
2017-09-03T21:51:01.738Z,3.93
2017-09-03T21:52:08.816Z,3.91
2017-09-03T21:53:13.479Z,3.95
2017-09-03T21:54:19.021Z,3.94
2017-09-03T21:55:23.946Z,3.94
2017-09-03T21:56:29.407Z,3.94
2017-09-03T21:57:35.322Z,3.92
2017-09-03T21:58:41.415Z,3.94
2017-09-03T21:59:46.041Z,3.93
2017-09-03T22:00:51.588Z,3.95
2017-09-03T22:01:57.167Z,3.95
2017-09-03T22:03:02.664Z,3.95
2017-09-03T22:04:08.169Z,3.94
2017-09-03T22:05:13.767Z,3.91
2017-09-03T22:06:19.200Z,3.95
2017-09-03T22:07:25.155Z,3.95
2017-09-03T22:08:30.325Z,3.94
2017-09-03T22:09:36.444Z,3.93
2017-09-03T22:10:41.398Z,3.91
2017-09-03T22:11:46.956Z,3.93
2017-09-03T22:12:52.429Z,3.94
2017-09-03T22:13:58.001Z,3.95
2017-09-03T22:15:03.563Z,3.91
2017-09-03T22:16:09.928Z,3.92
2017-09-03T22:17:14.649Z,3.93
2017-09-03T22:18:20.148Z,3.91
2017-09-03T22:19:25.701Z,3.94
2017-09-03T22:20:31.190Z,3.93
2017-09-03T22:21:36.715Z,3.91
2017-09-03T22:22:43.041Z,3.91
2017-09-03T22:23:47.782Z,3.95
2017-09-03T22:24:53.299Z,3.94
2017-09-03T22:25:59.624Z,3.92
2017-09-03T22:27:04.424Z,3.91
2017-09-03T22:28:10.396Z,3.94
2017-09-03T22:29:16.009Z,3.93
2017-09-03T22:30:20.960Z,3.95
2017-09-03T22:31:26.662Z,3.94
2017-09-03T22:32:32.928Z,3.93
2017-09-03T22:33:38.630Z,3.90
2017-09-03T22:34:43.167Z,3.93
2017-09-03T22:35:48.767Z,3.94
2017-09-03T22:36:54.251Z,3.93
2017-09-03T22:38:00.381Z,3.94
2017-09-03T22:39:06.007Z,3.91
2017-09-03T22:40:10.964Z,3.94
2017-09-03T22:41:16.889Z,3.90
2017-09-03T22:42:22.684Z,3.90
2017-09-03T22:43:27.629Z,3.92
2017-09-03T22:44:33.041Z,3.90
2017-09-03T22:45:40.419Z,3.94
2017-09-03T22:46:44.055Z,3.91
2017-09-03T22:47:50.897Z,3.93
2017-09-03T22:48:55.051Z,3.90
2017-09-03T22:50:00.662Z,3.91
2017-09-03T22:51:06.199Z,3.93
2017-09-03T22:52:11.714Z,3.94
2017-09-03T22:53:18.958Z,3.90
2017-09-03T22:54:22.770Z,3.93
2017-09-03T22:55:28.924Z,3.93
2017-09-03T22:56:34.561Z,3.92
2017-09-03T22:57:39.452Z,3.90
2017-09-03T22:58:45.621Z,3.90
2017-09-03T22:59:50.554Z,3.92
2017-09-03T23:00:55.982Z,3.94
2017-09-03T23:02:01.475Z,3.93
2017-09-03T23:03:07.183Z,3.92
2017-09-03T23:04:12.624Z,3.90
2017-09-03T23:05:18.920Z,3.91
2017-09-03T23:06:23.681Z,3.94
2017-09-03T23:07:29.926Z,3.89
2017-09-03T23:08:34.776Z,3.93
2017-09-03T23:09:41.928Z,3.89
2017-09-03T23:10:45.849Z,3.92
2017-09-03T23:11:52.095Z,3.93
2017-09-03T23:12:56.915Z,3.93
2017-09-03T23:14:02.331Z,3.90
2017-09-03T23:15:07.835Z,3.93
2017-09-03T23:16:13.391Z,3.90
2017-09-03T23:17:18.895Z,3.91
2017-09-03T23:18:25.029Z,3.92
2017-09-03T23:19:29.995Z,3.93
2017-09-03T23:20:36.034Z,3.93
2017-09-03T23:21:42.076Z,3.90
2017-09-03T23:22:46.743Z,3.89
2017-09-03T23:23:52.160Z,3.93
2017-09-03T23:24:57.655Z,3.89
2017-09-03T23:26:03.241Z,3.89
2017-09-03T23:27:16.452Z,3.92
2017-09-03T23:28:14.275Z,3.90
2017-09-03T23:29:19.871Z,3.89
2017-09-03T23:30:28.098Z,3.92
2017-09-03T23:31:33.711Z,3.93
2017-09-03T23:32:36.403Z,3.89
2017-09-03T23:33:44.618Z,3.93
2017-09-03T23:34:47.513Z,3.89
2017-09-03T23:35:53.112Z,3.93
2017-09-03T23:37:01.052Z,3.89
2017-09-03T23:38:04.163Z,3.91
2017-09-03T23:39:09.824Z,3.92
2017-09-03T23:40:15.194Z,3.93
2017-09-03T23:41:20.713Z,3.89
2017-09-03T23:42:27.552Z,3.92
2017-09-03T23:43:31.748Z,3.91
2017-09-03T23:44:37.346Z,3.92
2017-09-03T23:45:45.170Z,3.92
2017-09-03T23:46:48.372Z,3.88
2017-09-03T23:47:56.730Z,3.91
2017-09-03T23:49:06.983Z,3.91
2017-09-03T23:50:05.098Z,3.91
2017-09-03T23:51:10.520Z,3.89
2017-09-03T23:52:18.591Z,3.88
2017-09-03T23:53:24.094Z,3.89
2017-09-03T23:54:28.249Z,3.89
2017-09-03T23:55:42.493Z,3.92
2017-09-03T23:56:38.220Z,3.88
2017-09-03T23:57:44.597Z,3.91
2017-09-03T23:58:50.142Z,3.90
2017-09-03T23:59:54.877Z,3.91
